sensor_id;sensor_type;location;lat;lon;timestamp;pressure;altitude;pressure_sealevel;temperature;humidity
68107;BME280;54892;47.488;19.026;2022-09-12T00:02:35;99790.47;;;16.15;69.70
68107;BME280;54892;47.488;19.026;2022-09-12T00:05:42;99796.31;;;16.03;70.32
68107;BME280;54892;47.488;19.026;2022-09-12T00:08:47;99785.97;;;16.02;70.15
68107;BME280;54892;47.488;19.026;2022-09-12T00:11:50;99781.91;;;16.04;70.17
68107;BME280;54892;47.488;19.026;2022-09-12T00:14:53;99779.84;;;16.15;69.67
68107;BME280;54892;47.488;19.026;2022-09-12T00:17:58;99776.88;;;16.03;70.04
68107;BME280;54892;47.488;19.026;2022-09-12T00:21:03;99777.34;;;16.05;69.96
68107;BME280;54892;47.488;19.026;2022-09-12T00:24:07;99784.47;;;15.95;70.28
68107;BME280;54892;47.488;19.026;2022-09-12T00:27:10;99792.66;;;15.99;70.21
68107;BME280;54892;47.488;19.026;2022-09-12T00:30:14;99788.63;;;15.88;70.64
68107;BME280;54892;47.488;19.026;2022-09-12T00:33:18;99798.94;;;15.75;71.15
68107;BME280;54892;47.488;19.026;2022-09-12T00:36:22;99791.62;;;15.81;70.75
68107;BME280;54892;47.488;19.026;2022-09-12T00:39:26;99787.22;;;15.90;70.53
68107;BME280;54892;47.488;19.026;2022-09-12T00:42:29;99784.56;;;15.90;70.44
68107;BME280;54892;47.488;19.026;2022-09-12T00:45:33;99779.66;;;15.97;70.31
68107;BME280;54892;47.488;19.026;2022-09-12T00:48:41;99784.16;;;15.83;70.98
68107;BME280;54892;47.488;19.026;2022-09-12T00:51:50;99785.06;;;15.92;70.56
68107;BME280;54892;47.488;19.026;2022-09-12T00:54:56;99774.31;;;15.97;70.45
68107;BME280;54892;47.488;19.026;2022-09-12T00:58:05;99786.13;;;15.91;70.86
68107;BME280;54892;47.488;19.026;2022-09-12T01:01:11;99772.16;;;16.00;70.62
68107;BME280;54892;47.488;19.026;2022-09-12T01:04:17;99779.34;;;15.99;70.70
68107;BME280;54892;47.488;19.026;2022-09-12T01:07:22;99770.00;;;16.02;70.47
68107;BME280;54892;47.488;19.026;2022-09-12T01:10:25;99766.25;;;15.89;70.85
68107;BME280;54892;47.488;19.026;2022-09-12T01:13:28;99788.13;;;15.86;71.13
68107;BME280;54892;47.488;19.026;2022-09-12T01:16:34;99785.56;;;15.94;70.92
68107;BME280;54892;47.488;19.026;2022-09-12T01:20:06;99774.88;;;15.80;71.45
68107;BME280;54892;47.488;19.026;2022-09-12T01:27:29;99767.19;;;15.79;71.43
68107;BME280;54892;47.488;19.026;2022-09-12T01:30:46;99766.81;;;15.72;71.58
68107;BME280;54892;47.488;19.026;2022-09-12T01:34:03;99775.97;;;15.65;71.65
68107;BME280;54892;47.488;19.026;2022-09-12T01:37:14;99773.91;;;15.76;71.08
68107;BME280;54892;47.488;19.026;2022-09-12T01:40:22;99753.78;;;15.56;71.53
68107;BME280;54892;47.488;19.026;2022-09-12T01:43:34;99777.94;;;15.60;71.50
68107;BME280;54892;47.488;19.026;2022-09-12T01:46:42;99770.06;;;15.68;71.29
68107;BME280;54892;47.488;19.026;2022-09-12T01:49:55;99774.28;;;15.70;71.36
68107;BME280;54892;47.488;19.026;2022-09-12T01:53:05;99776.25;;;15.78;71.36
68107;BME280;54892;47.488;19.026;2022-09-12T01:56:14;99782.34;;;15.64;72.10
68107;BME280;54892;47.488;19.026;2022-09-12T01:59:25;99765.91;;;15.48;72.90
68107;BME280;54892;47.488;19.026;2022-09-12T02:02:35;99771.69;;;15.50;72.79
68107;BME280;54892;47.488;19.026;2022-09-12T02:05:42;99758.88;;;15.52;72.45
68107;BME280;54892;47.488;19.026;2022-09-12T02:08:50;99763.91;;;15.40;72.86
68107;BME280;54892;47.488;19.026;2022-09-12T02:11:57;99766.38;;;15.36;73.09
68107;BME280;54892;47.488;19.026;2022-09-12T02:15:03;99768.16;;;15.55;72.29
68107;BME280;54892;47.488;19.026;2022-09-12T02:18:11;99762.13;;;15.35;73.07
68107;BME280;54892;47.488;19.026;2022-09-12T02:21:17;99769.53;;;15.38;72.88
68107;BME280;54892;47.488;19.026;2022-09-12T02:24:21;99769.41;;;15.44;72.89
68107;BME280;54892;47.488;19.026;2022-09-12T02:27:27;99773.84;;;15.34;73.44
68107;BME280;54892;47.488;19.026;2022-09-12T02:30:38;99771.84;;;15.26;74.03
68107;BME280;54892;47.488;19.026;2022-09-12T02:33:48;99789.38;;;15.27;74.11
68107;BME280;54892;47.488;19.026;2022-09-12T02:37:02;99781.50;;;15.36;73.91
68107;BME280;54892;47.488;19.026;2022-09-12T02:40:08;99780.44;;;15.37;74.00
68107;BME280;54892;47.488;19.026;2022-09-12T02:43:12;99789.50;;;15.36;74.37
68107;BME280;54892;47.488;19.026;2022-09-12T02:46:19;99775.59;;;15.25;75.27
68107;BME280;54892;47.488;19.026;2022-09-12T02:49:24;99767.69;;;15.20;75.70
68107;BME280;54892;47.488;19.026;2022-09-12T02:52:28;99781.00;;;15.20;75.84
68107;BME280;54892;47.488;19.026;2022-09-12T02:55:32;99793.59;;;15.28;75.70
68107;BME280;54892;47.488;19.026;2022-09-12T02:58:36;99783.66;;;15.20;75.95
68107;BME280;54892;47.488;19.026;2022-09-12T03:01:53;99775.88;;;15.23;75.84
68107;BME280;54892;47.488;19.026;2022-09-12T03:05:12;99780.13;;;15.25;75.67
68107;BME280;54892;47.488;19.026;2022-09-12T03:08:30;99794.72;;;15.08;76.39
68107;BME280;54892;47.488;19.026;2022-09-12T03:11:58;99791.81;;;14.90;77.27
68107;BME280;54892;47.488;19.026;2022-09-12T03:15:11;99799.12;;;14.99;76.66
68107;BME280;54892;47.488;19.026;2022-09-12T03:18:30;99796.03;;;14.91;76.50
68107;BME280;54892;47.488;19.026;2022-09-12T03:21:45;99799.53;;;15.06;75.72
68107;BME280;54892;47.488;19.026;2022-09-12T03:24:56;99799.88;;;15.18;74.63
68107;BME280;54892;47.488;19.026;2022-09-12T03:28:07;99783.41;;;15.02;75.04
68107;BME280;54892;47.488;19.026;2022-09-12T03:31:13;99786.50;;;15.10;74.78
68107;BME280;54892;47.488;19.026;2022-09-12T03:34:17;99794.94;;;15.12;74.49
68107;BME280;54892;47.488;19.026;2022-09-12T03:37:21;99800.19;;;15.17;74.34
68107;BME280;54892;47.488;19.026;2022-09-12T03:40:24;99806.38;;;15.12;74.43
68107;BME280;54892;47.488;19.026;2022-09-12T03:43:28;99808.78;;;15.28;73.60
68107;BME280;54892;47.488;19.026;2022-09-12T03:46:31;99805.50;;;15.17;74.07
68107;BME280;54892;47.488;19.026;2022-09-12T03:49:34;99816.13;;;15.17;74.15
68107;BME280;54892;47.488;19.026;2022-09-12T03:52:39;99813.72;;;15.01;74.64
68107;BME280;54892;47.488;19.026;2022-09-12T03:55:42;99812.69;;;14.97;74.87
68107;BME280;54892;47.488;19.026;2022-09-12T03:58:45;99820.66;;;14.97;74.84
68107;BME280;54892;47.488;19.026;2022-09-12T04:01:48;99822.34;;;14.93;74.99
68107;BME280;54892;47.488;19.026;2022-09-12T04:04:51;99817.31;;;14.72;75.85
68107;BME280;54892;47.488;19.026;2022-09-12T04:07:55;99808.97;;;14.79;75.54
68107;BME280;54892;47.488;19.026;2022-09-12T04:11:02;99810.72;;;14.89;75.07
68107;BME280;54892;47.488;19.026;2022-09-12T04:14:06;99806.44;;;15.07;74.15
68107;BME280;54892;47.488;19.026;2022-09-12T04:17:09;99810.75;;;15.03;74.04
68107;BME280;54892;47.488;19.026;2022-09-12T04:20:13;99800.06;;;14.89;74.34
68107;BME280;54892;47.488;19.026;2022-09-12T04:23:17;99804.47;;;14.99;73.98
68107;BME280;54892;47.488;19.026;2022-09-12T04:26:20;99804.53;;;14.94;73.85
68107;BME280;54892;47.488;19.026;2022-09-12T04:29:23;99805.16;;;15.04;73.08
68107;BME280;54892;47.488;19.026;2022-09-12T04:32:28;99805.31;;;14.94;73.23
68107;BME280;54892;47.488;19.026;2022-09-12T04:35:33;99807.53;;;15.06;72.95
68107;BME280;54892;47.488;19.026;2022-09-12T04:38:38;99806.44;;;15.07;72.57
68107;BME280;54892;47.488;19.026;2022-09-12T04:41:41;99811.06;;;15.01;72.59
68107;BME280;54892;47.488;19.026;2022-09-12T04:44:44;99811.25;;;15.05;72.80
68107;BME280;54892;47.488;19.026;2022-09-12T04:47:48;99803.72;;;15.12;72.66
68107;BME280;54892;47.488;19.026;2022-09-12T04:50:51;99813.84;;;15.10;72.79
68107;BME280;54892;47.488;19.026;2022-09-12T04:53:56;99816.06;;;15.03;73.23
68107;BME280;54892;47.488;19.026;2022-09-12T04:57:00;99815.28;;;15.02;73.43
68107;BME280;54892;47.488;19.026;2022-09-12T05:00:05;99818.66;;;15.08;73.19
68107;BME280;54892;47.488;19.026;2022-09-12T05:03:09;99823.94;;;14.94;73.77
68107;BME280;54892;47.488;19.026;2022-09-12T05:06:13;99822.50;;;15.02;73.46
68107;BME280;54892;47.488;19.026;2022-09-12T05:09:18;99822.97;;;14.85;74.11
68107;BME280;54892;47.488;19.026;2022-09-12T05:12:22;99825.28;;;14.91;73.77
68107;BME280;54892;47.488;19.026;2022-09-12T05:15:25;99823.78;;;15.04;73.24
68107;BME280;54892;47.488;19.026;2022-09-12T05:18:30;99823.81;;;15.18;72.70
68107;BME280;54892;47.488;19.026;2022-09-12T05:21:34;99832.44;;;15.10;73.04
68107;BME280;54892;47.488;19.026;2022-09-12T05:24:39;99835.41;;;15.09;73.00
68107;BME280;54892;47.488;19.026;2022-09-12T05:27:46;99848.16;;;15.26;72.56
68107;BME280;54892;47.488;19.026;2022-09-12T05:30:59;99850.06;;;15.39;71.81
68107;BME280;54892;47.488;19.026;2022-09-12T05:34:02;99844.97;;;15.43;71.69
68107;BME280;54892;47.488;19.026;2022-09-12T05:37:07;99848.56;;;15.52;71.41
68107;BME280;54892;47.488;19.026;2022-09-12T05:40:11;99844.12;;;15.61;70.75
68107;BME280;54892;47.488;19.026;2022-09-12T05:43:18;99851.41;;;15.89;69.61
68107;BME280;54892;47.488;19.026;2022-09-12T05:46:25;99854.88;;;16.17;68.48
68107;BME280;54892;47.488;19.026;2022-09-12T05:49:29;99864.81;;;16.53;67.38
68107;BME280;54892;47.488;19.026;2022-09-12T05:52:32;99865.47;;;16.59;66.91
68107;BME280;54892;47.488;19.026;2022-09-12T05:55:36;99862.06;;;16.31;67.82
68107;BME280;54892;47.488;19.026;2022-09-12T05:58:44;99868.97;;;16.46;67.52
68107;BME280;54892;47.488;19.026;2022-09-12T06:01:47;99862.19;;;16.11;68.62
68107;BME280;54892;47.488;19.026;2022-09-12T06:04:51;99859.28;;;16.36;67.74
68107;BME280;54892;47.488;19.026;2022-09-12T06:07:54;99872.44;;;16.18;68.46
68107;BME280;54892;47.488;19.026;2022-09-12T06:11:00;99861.28;;;16.16;68.49
68107;BME280;54892;47.488;19.026;2022-09-12T06:14:02;99865.72;;;16.21;68.71
68107;BME280;54892;47.488;19.026;2022-09-12T06:17:06;99865.03;;;16.15;68.63
68107;BME280;54892;47.488;19.026;2022-09-12T06:20:09;99865.22;;;16.19;68.72
68107;BME280;54892;47.488;19.026;2022-09-12T06:23:12;99865.81;;;16.16;68.52
68107;BME280;54892;47.488;19.026;2022-09-12T06:26:17;99873.22;;;16.19;68.59
68107;BME280;54892;47.488;19.026;2022-09-12T06:29:22;99871.72;;;16.12;68.85
68107;BME280;54892;47.488;19.026;2022-09-12T06:32:28;99886.53;;;16.33;68.20
68107;BME280;54892;47.488;19.026;2022-09-12T06:35:34;99884.56;;;16.24;68.33
68107;BME280;54892;47.488;19.026;2022-09-12T06:38:37;99877.75;;;16.32;68.00
68107;BME280;54892;47.488;19.026;2022-09-12T06:41:42;99889.97;;;16.33;68.19
68107;BME280;54892;47.488;19.026;2022-09-12T06:44:46;99887.28;;;16.61;67.33
68107;BME280;54892;47.488;19.026;2022-09-12T06:47:49;99883.47;;;16.39;67.94
68107;BME280;54892;47.488;19.026;2022-09-12T06:50:56;99877.63;;;16.51;67.77
68107;BME280;54892;47.488;19.026;2022-09-12T06:54:01;99880.47;;;16.83;66.41
68107;BME280;54892;47.488;19.026;2022-09-12T06:57:05;99889.31;;;17.29;65.64
68107;BME280;54892;47.488;19.026;2022-09-12T07:00:10;99888.75;;;18.18;62.65
68107;BME280;54892;47.488;19.026;2022-09-12T07:03:13;99879.91;;;19.54;56.99
68107;BME280;54892;47.488;19.026;2022-09-12T07:06:18;99891.34;;;20.29;53.76
68107;BME280;54892;47.488;19.026;2022-09-12T07:09:21;99892.22;;;21.14;51.12
68107;BME280;54892;47.488;19.026;2022-09-12T07:12:26;99892.56;;;21.80;49.41
68107;BME280;54892;47.488;19.026;2022-09-12T07:15:29;99890.56;;;22.51;47.52
68107;BME280;54892;47.488;19.026;2022-09-12T07:18:33;99887.81;;;22.76;46.42
68107;BME280;54892;47.488;19.026;2022-09-12T07:21:36;99903.34;;;22.54;46.06
68107;BME280;54892;47.488;19.026;2022-09-12T07:24:41;99895.69;;;22.81;45.49
68107;BME280;54892;47.488;19.026;2022-09-12T07:27:47;99900.78;;;23.55;44.60
68107;BME280;54892;47.488;19.026;2022-09-12T07:30:52;99906.22;;;23.27;44.07
68107;BME280;54892;47.488;19.026;2022-09-12T07:33:55;99906.81;;;23.81;42.56
68107;BME280;54892;47.488;19.026;2022-09-12T07:36:59;99916.25;;;23.59;43.49
68107;BME280;54892;47.488;19.026;2022-09-12T07:40:02;99922.19;;;23.07;44.47
68107;BME280;54892;47.488;19.026;2022-09-12T07:43:07;99926.59;;;21.75;48.13
68107;BME280;54892;47.488;19.026;2022-09-12T07:46:12;99915.72;;;22.96;45.56
68107;BME280;54892;47.488;19.026;2022-09-12T07:49:15;99904.56;;;24.15;42.80
68107;BME280;54892;47.488;19.026;2022-09-12T07:52:19;99912.81;;;24.22;42.08
68107;BME280;54892;47.488;19.026;2022-09-12T07:55:22;99913.94;;;23.73;43.26
68107;BME280;54892;47.488;19.026;2022-09-12T07:58:27;99915.75;;;22.71;43.20
68107;BME280;54892;47.488;19.026;2022-09-12T08:01:30;99918.00;;;22.19;45.12
68107;BME280;54892;47.488;19.026;2022-09-12T08:04:34;99910.50;;;22.00;45.49
68107;BME280;54892;47.488;19.026;2022-09-12T08:07:38;99924.19;;;22.20;45.63
68107;BME280;54892;47.488;19.026;2022-09-12T08:10:41;99911.84;;;21.94;46.00
68107;BME280;54892;47.488;19.026;2022-09-12T08:13:46;99914.81;;;21.68;47.08
68107;BME280;54892;47.488;19.026;2022-09-12T08:16:53;99917.69;;;21.29;48.18
68107;BME280;54892;47.488;19.026;2022-09-12T08:19:57;99912.09;;;21.34;46.47
68107;BME280;54892;47.488;19.026;2022-09-12T08:23:00;99916.06;;;21.16;47.67
68107;BME280;54892;47.488;19.026;2022-09-12T08:26:05;99911.72;;;21.23;47.15
68107;BME280;54892;47.488;19.026;2022-09-12T08:29:10;99920.38;;;21.29;46.96
68107;BME280;54892;47.488;19.026;2022-09-12T08:32:13;99923.59;;;21.01;48.96
68107;BME280;54892;47.488;19.026;2022-09-12T08:35:16;99912.13;;;21.13;48.32
68107;BME280;54892;47.488;19.026;2022-09-12T08:38:20;99916.66;;;21.00;48.22
68107;BME280;54892;47.488;19.026;2022-09-12T08:41:27;99914.88;;;21.04;47.67
68107;BME280;54892;47.488;19.026;2022-09-12T08:44:45;99924.03;;;20.82;48.28
68107;BME280;54892;47.488;19.026;2022-09-12T08:47:54;99916.31;;;20.80;48.34
68107;BME280;54892;47.488;19.026;2022-09-12T08:50:58;99911.44;;;20.74;49.11
68107;BME280;54892;47.488;19.026;2022-09-12T08:54:04;99910.50;;;20.69;49.07
68107;BME280;54892;47.488;19.026;2022-09-12T08:57:13;99912.13;;;20.62;48.87
68107;BME280;54892;47.488;19.026;2022-09-12T09:00:18;99919.63;;;20.47;49.95
68107;BME280;54892;47.488;19.026;2022-09-12T09:07:03;99901.97;;;20.16;50.32
68107;BME280;54892;47.488;19.026;2022-09-12T09:10:16;99906.12;;;20.05;51.75
68107;BME280;54892;47.488;19.026;2022-09-12T09:13:36;99912.81;;;20.50;50.09
68107;BME280;54892;47.488;19.026;2022-09-12T09:17:09;99908.16;;;20.68;50.01
68107;BME280;54892;47.488;19.026;2022-09-12T09:20:18;99905.84;;;20.28;49.05
68107;BME280;54892;47.488;19.026;2022-09-12T09:23:27;99900.03;;;20.26;49.39
68107;BME280;54892;47.488;19.026;2022-09-12T09:26:40;99898.69;;;20.41;49.92
68107;BME280;54892;47.488;19.026;2022-09-12T09:29:46;99904.00;;;20.49;48.87
68107;BME280;54892;47.488;19.026;2022-09-12T09:32:54;99905.88;;;20.19;49.63
68107;BME280;54892;47.488;19.026;2022-09-12T09:36:04;99910.00;;;20.16;48.77
68107;BME280;54892;47.488;19.026;2022-09-12T09:39:19;99900.09;;;20.47;48.86
68107;BME280;54892;47.488;19.026;2022-09-12T09:42:30;99904.69;;;20.37;49.37
68107;BME280;54892;47.488;19.026;2022-09-12T09:45:36;99898.56;;;20.37;49.29
68107;BME280;54892;47.488;19.026;2022-09-12T09:48:43;99909.00;;;20.60;49.55
68107;BME280;54892;47.488;19.026;2022-09-12T09:51:48;99905.38;;;20.26;49.66
68107;BME280;54892;47.488;19.026;2022-09-12T09:54:55;99902.28;;;20.15;50.38
68107;BME280;54892;47.488;19.026;2022-09-12T09:57:59;99892.78;;;20.56;49.61
68107;BME280;54892;47.488;19.026;2022-09-12T10:01:03;99897.13;;;20.39;48.94
68107;BME280;54892;47.488;19.026;2022-09-12T10:04:08;99883.25;;;20.37;49.26
68107;BME280;54892;47.488;19.026;2022-09-12T10:07:20;99884.97;;;20.63;49.67
68107;BME280;54892;47.488;19.026;2022-09-12T10:10:24;99889.41;;;20.68;49.39
68107;BME280;54892;47.488;19.026;2022-09-12T10:13:35;99892.81;;;20.77;49.14
68107;BME280;54892;47.488;19.026;2022-09-12T10:16:48;99899.53;;;20.62;49.37
68107;BME280;54892;47.488;19.026;2022-09-12T10:19:54;99898.09;;;20.65;48.80
68107;BME280;54892;47.488;19.026;2022-09-12T10:23:22;99906.78;;;20.62;49.00
68107;BME280;54892;47.488;19.026;2022-09-12T10:26:34;99907.84;;;20.39;49.13
68107;BME280;54892;47.488;19.026;2022-09-12T10:29:40;99910.47;;;20.48;49.89
68107;BME280;54892;47.488;19.026;2022-09-12T10:32:48;99910.94;;;20.20;50.90
68107;BME280;54892;47.488;19.026;2022-09-12T10:35:54;99907.47;;;20.20;51.19
68107;BME280;54892;47.488;19.026;2022-09-12T10:39:00;99907.34;;;20.46;50.81
68107;BME280;54892;47.488;19.026;2022-09-12T10:42:05;99905.03;;;20.66;50.54
68107;BME280;54892;47.488;19.026;2022-09-12T10:45:17;99895.59;;;20.60;50.29
68107;BME280;54892;47.488;19.026;2022-09-12T10:48:26;99893.41;;;20.83;50.00
68107;BME280;54892;47.488;19.026;2022-09-12T10:51:31;99888.09;;;20.95;49.60
68107;BME280;54892;47.488;19.026;2022-09-12T10:54:34;99896.59;;;21.19;48.90
68107;BME280;54892;47.488;19.026;2022-09-12T10:57:49;99893.34;;;20.92;48.36
68107;BME280;54892;47.488;19.026;2022-09-12T11:01:03;99887.19;;;20.91;48.21
68107;BME280;54892;47.488;19.026;2022-09-12T11:04:25;99884.34;;;20.66;47.84
68107;BME280;54892;47.488;19.026;2022-09-12T11:07:38;99875.12;;;20.55;47.89
68107;BME280;54892;47.488;19.026;2022-09-12T11:10:48;99883.81;;;20.73;48.08
68107;BME280;54892;47.488;19.026;2022-09-12T11:14:06;99889.84;;;20.70;48.21
68107;BME280;54892;47.488;19.026;2022-09-12T11:17:22;99889.38;;;20.77;47.03
68107;BME280;54892;47.488;19.026;2022-09-12T11:20:50;99885.06;;;20.54;46.95
68107;BME280;54892;47.488;19.026;2022-09-12T11:28:02;99875.84;;;20.34;48.56
68107;BME280;54892;47.488;19.026;2022-09-12T11:31:23;99886.94;;;20.54;48.31
68107;BME280;54892;47.488;19.026;2022-09-12T11:34:39;99891.63;;;20.36;48.70
68107;BME280;54892;47.488;19.026;2022-09-12T11:38:01;99878.28;;;19.88;49.28
68107;BME280;54892;47.488;19.026;2022-09-12T11:41:14;99885.16;;;20.07;49.20
68107;BME280;54892;47.488;19.026;2022-09-12T11:44:23;99888.19;;;20.27;49.12
68107;BME280;54892;47.488;19.026;2022-09-12T11:47:31;99889.69;;;20.66;49.04
68107;BME280;54892;47.488;19.026;2022-09-12T11:50:37;99883.66;;;20.78;48.21
68107;BME280;54892;47.488;19.026;2022-09-12T11:53:41;99887.19;;;21.12;47.92
68107;BME280;54892;47.488;19.026;2022-09-12T11:56:48;99873.91;;;20.95;48.10
68107;BME280;54892;47.488;19.026;2022-09-12T11:59:56;99880.53;;;20.67;46.78
68107;BME280;54892;47.488;19.026;2022-09-12T12:03:02;99870.97;;;20.58;47.03
68107;BME280;54892;47.488;19.026;2022-09-12T12:06:13;99871.56;;;20.63;47.44
68107;BME280;54892;47.488;19.026;2022-09-12T12:09:21;99875.97;;;20.68;48.18
68107;BME280;54892;47.488;19.026;2022-09-12T12:12:26;99869.41;;;20.57;47.83
68107;BME280;54892;47.488;19.026;2022-09-12T12:15:30;99864.37;;;20.55;48.21
68107;BME280;54892;47.488;19.026;2022-09-12T12:18:36;99860.94;;;20.54;48.38
68107;BME280;54892;47.488;19.026;2022-09-12T12:21:42;99859.62;;;20.61;47.56
68107;BME280;54892;47.488;19.026;2022-09-12T12:25:03;99851.31;;;20.75;47.54
68107;BME280;54892;47.488;19.026;2022-09-12T12:28:08;99840.59;;;20.96;47.09
68107;BME280;54892;47.488;19.026;2022-09-12T12:31:11;99835.31;;;20.87;47.72
68107;BME280;54892;47.488;19.026;2022-09-12T12:34:26;99853.06;;;21.13;47.84
68107;BME280;54892;47.488;19.026;2022-09-12T12:37:49;99851.16;;;21.01;47.59
68107;BME280;54892;47.488;19.026;2022-09-12T12:40:53;99839.72;;;21.04;47.30
68107;BME280;54892;47.488;19.026;2022-09-12T12:47:49;99846.66;;;21.05;46.85
68107;BME280;54892;47.488;19.026;2022-09-12T12:51:14;99847.59;;;21.09;46.58
68107;BME280;54892;47.488;19.026;2022-09-12T12:54:33;99853.16;;;21.04;46.49
68107;BME280;54892;47.488;19.026;2022-09-12T12:57:50;99848.94;;;20.73;47.16
68107;BME280;54892;47.488;19.026;2022-09-12T13:01:08;99844.53;;;20.77;47.51
68107;BME280;54892;47.488;19.026;2022-09-12T13:04:15;99832.72;;;20.48;47.89
68107;BME280;54892;47.488;19.026;2022-09-12T13:07:25;99845.66;;;20.76;47.86
68107;BME280;54892;47.488;19.026;2022-09-12T13:10:29;99844.22;;;21.00;46.85
68107;BME280;54892;47.488;19.026;2022-09-12T13:13:35;99847.69;;;20.79;46.83
68107;BME280;54892;47.488;19.026;2022-09-12T13:16:52;99843.13;;;20.71;47.37
68107;BME280;54892;47.488;19.026;2022-09-12T13:20:15;99847.44;;;20.63;47.33
68107;BME280;54892;47.488;19.026;2022-09-12T13:23:35;99837.62;;;20.67;47.50
68107;BME280;54892;47.488;19.026;2022-09-12T13:26:40;99830.06;;;20.91;47.04
68107;BME280;54892;47.488;19.026;2022-09-12T13:29:44;99828.97;;;20.92;47.45
68107;BME280;54892;47.488;19.026;2022-09-12T13:32:49;99826.37;;;20.74;47.71
68107;BME280;54892;47.488;19.026;2022-09-12T13:36:26;99824.59;;;20.87;47.55
68107;BME280;54892;47.488;19.026;2022-09-12T13:39:39;99823.78;;;20.65;47.20
68107;BME280;54892;47.488;19.026;2022-09-12T13:42:48;99815.50;;;20.79;46.06
68107;BME280;54892;47.488;19.026;2022-09-12T13:45:55;99818.22;;;20.92;45.69
68107;BME280;54892;47.488;19.026;2022-09-12T13:49:10;99823.41;;;20.97;45.14
68107;BME280;54892;47.488;19.026;2022-09-12T13:52:17;99822.09;;;20.82;45.57
68107;BME280;54892;47.488;19.026;2022-09-12T13:55:28;99821.56;;;20.89;46.04
68107;BME280;54892;47.488;19.026;2022-09-12T13:58:34;99811.63;;;20.68;45.93
68107;BME280;54892;47.488;19.026;2022-09-12T14:01:38;99821.25;;;20.69;46.10
68107;BME280;54892;47.488;19.026;2022-09-12T14:04:45;99810.16;;;20.71;45.07
68107;BME280;54892;47.488;19.026;2022-09-12T14:08:08;99806.66;;;20.79;45.03
68107;BME280;54892;47.488;19.026;2022-09-12T14:11:22;99812.84;;;20.92;44.24
68107;BME280;54892;47.488;19.026;2022-09-12T14:14:30;99817.00;;;20.89;43.86
68107;BME280;54892;47.488;19.026;2022-09-12T14:17:35;99823.25;;;20.72;44.71
68107;BME280;54892;47.488;19.026;2022-09-12T14:20:42;99812.94;;;20.83;44.79
68107;BME280;54892;47.488;19.026;2022-09-12T14:23:45;99812.97;;;20.95;44.35
68107;BME280;54892;47.488;19.026;2022-09-12T14:26:51;99816.94;;;20.77;45.03
68107;BME280;54892;47.488;19.026;2022-09-12T14:30:01;99811.41;;;20.94;45.03
68107;BME280;54892;47.488;19.026;2022-09-12T14:33:18;99824.13;;;21.19;44.50
68107;BME280;54892;47.488;19.026;2022-09-12T14:36:25;99815.59;;;21.04;42.47
68107;BME280;54892;47.488;19.026;2022-09-12T14:39:31;99817.03;;;21.02;41.97
68107;BME280;54892;47.488;19.026;2022-09-12T14:42:35;99809.41;;;20.91;41.50
68107;BME280;54892;47.488;19.026;2022-09-12T14:45:39;99820.00;;;20.88;40.77
68107;BME280;54892;47.488;19.026;2022-09-12T14:48:50;99810.06;;;20.88;40.31
68107;BME280;54892;47.488;19.026;2022-09-12T14:51:57;99803.75;;;21.05;40.73
68107;BME280;54892;47.488;19.026;2022-09-12T14:55:03;99805.66;;;21.05;40.71
68107;BME280;54892;47.488;19.026;2022-09-12T14:58:13;99800.84;;;21.10;40.62
68107;BME280;54892;47.488;19.026;2022-09-12T15:01:22;99806.22;;;21.10;40.83
68107;BME280;54892;47.488;19.026;2022-09-12T15:04:38;99803.44;;;21.19;40.81
68107;BME280;54892;47.488;19.026;2022-09-12T15:07:44;99804.44;;;21.14;40.87
68107;BME280;54892;47.488;19.026;2022-09-12T15:10:54;99799.72;;;20.99;41.21
68107;BME280;54892;47.488;19.026;2022-09-12T15:13:57;99801.06;;;21.05;41.41
68107;BME280;54892;47.488;19.026;2022-09-12T15:17:01;99804.66;;;21.09;41.51
68107;BME280;54892;47.488;19.026;2022-09-12T15:20:06;99805.31;;;21.06;40.94
68107;BME280;54892;47.488;19.026;2022-09-12T15:23:16;99804.16;;;20.95;41.32
68107;BME280;54892;47.488;19.026;2022-09-12T15:26:21;99805.97;;;21.03;41.62
68107;BME280;54892;47.488;19.026;2022-09-12T15:29:27;99793.00;;;21.05;39.93
68107;BME280;54892;47.488;19.026;2022-09-12T15:32:30;99793.50;;;20.86;40.04
68107;BME280;54892;47.488;19.026;2022-09-12T15:35:34;99794.84;;;21.13;39.74
68107;BME280;54892;47.488;19.026;2022-09-12T15:38:39;99795.91;;;21.00;39.58
68107;BME280;54892;47.488;19.026;2022-09-12T15:41:42;99800.09;;;20.89;39.65
68107;BME280;54892;47.488;19.026;2022-09-12T15:44:46;99792.41;;;20.87;40.00
68107;BME280;54892;47.488;19.026;2022-09-12T15:47:50;99799.97;;;20.85;40.27
68107;BME280;54892;47.488;19.026;2022-09-12T15:50:53;99800.19;;;20.80;40.31
68107;BME280;54892;47.488;19.026;2022-09-12T15:54:03;99796.75;;;20.71;40.86
68107;BME280;54892;47.488;19.026;2022-09-12T15:57:06;99789.78;;;20.57;41.43
68107;BME280;54892;47.488;19.026;2022-09-12T16:00:10;99794.50;;;20.60;41.66
68107;BME280;54892;47.488;19.026;2022-09-12T16:03:20;99792.47;;;20.78;41.56
68107;BME280;54892;47.488;19.026;2022-09-12T16:06:23;99783.78;;;20.81;41.46
68107;BME280;54892;47.488;19.026;2022-09-12T16:09:29;99796.97;;;20.87;41.23
68107;BME280;54892;47.488;19.026;2022-09-12T16:12:32;99789.78;;;20.57;41.49
68107;BME280;54892;47.488;19.026;2022-09-12T16:15:35;99806.16;;;20.56;41.46
68107;BME280;54892;47.488;19.026;2022-09-12T16:18:38;99798.94;;;20.56;41.51
68107;BME280;54892;47.488;19.026;2022-09-12T16:21:41;99800.38;;;20.53;41.70
68107;BME280;54892;47.488;19.026;2022-09-12T16:24:46;99801.94;;;20.54;41.71
68107;BME280;54892;47.488;19.026;2022-09-12T16:27:48;99806.06;;;20.52;41.55
68107;BME280;54892;47.488;19.026;2022-09-12T16:30:55;99814.31;;;20.47;41.66
68107;BME280;54892;47.488;19.026;2022-09-12T16:33:58;99808.38;;;20.32;41.88
68107;BME280;54892;47.488;19.026;2022-09-12T16:37:02;99804.16;;;20.31;42.30